HNL weather

Honolulu International Airport
Honolulu, Hawaii, United States

Public forecast

Using degrees Fahrenheit for public forecast. Weather courtesy of forecast.io.

METAR (pilot weather report)

Retrieved 2017/06/27 01:53 UTC (1 hour ago):

PHNL 270153Z 05018G23KT 10SM FEW026 FEW036 BKN045 29/19 A3002

TAF (pilot weather forecast)

Forecast is more than 12 hours old.

Retrieved 2017/06/26 00:39 UTC (1 day ago):

TAF PHNL 262337Z 2700/2806 07016G24KT P6SM FEW025 SCT050 FM270600 06008KT P6SM SCT040 FM272000 07017G25KT P6SM FEW025 SCT050 FM280500 06011KT P6SM SCT040